createdAt,value
2023-02-12T00:01:29.303Z,21.80
2023-02-12T00:03:58.451Z,17.67
2023-02-12T00:06:28.213Z,18.30
2023-02-12T00:08:59.296Z,24.53
2023-02-12T00:11:29.408Z,30.57
2023-02-12T00:13:58.308Z,35.90
2023-02-12T00:16:28.868Z,39.63
2023-02-12T00:18:58.508Z,26.10
2023-02-12T00:21:27.377Z,28.43
2023-02-12T00:23:59.196Z,27.20
2023-02-12T00:26:29.205Z,41.30
2023-02-12T00:28:58.534Z,23.80
2023-02-12T00:31:29.542Z,32.87
2023-02-12T00:33:59.935Z,24.53
2023-02-12T00:36:29.929Z,27.77
2023-02-12T00:39:00.646Z,61.00
2023-02-12T00:41:29.846Z,30.00
2023-02-12T00:43:58.779Z,29.70
2023-02-12T00:46:29.446Z,35.03
2023-02-12T00:48:58.873Z,40.83
2023-02-12T00:51:27.905Z,50.57
2023-02-12T00:53:57.673Z,57.93
2023-02-12T00:56:28.044Z,50.47
2023-02-12T00:58:57.359Z,59.07
2023-02-12T01:01:27.974Z,84.07
2023-02-12T01:03:58.342Z,90.00
2023-02-12T01:06:28.933Z,57.80
2023-02-12T01:08:57.723Z,62.07
2023-02-12T01:11:28.157Z,79.70
2023-02-12T01:13:57.243Z,129.13
2023-02-12T01:16:26.252Z,64.23
2023-02-12T01:18:56.263Z,59.73
2023-02-12T01:21:26.743Z,125.37
2023-02-12T01:23:56.662Z,92.20
2023-02-12T01:26:28.590Z,153.33
2023-02-12T01:29:01.576Z,169.23
2023-02-12T01:31:32.160Z,106.57
2023-02-12T01:34:01.837Z,105.97
2023-02-12T01:36:31.034Z,70.60
2023-02-12T01:39:00.180Z,68.20
2023-02-12T01:41:30.454Z,180.10
2023-02-12T01:44:25.793Z,170.50
2023-02-12T01:46:57.512Z,75.73
2023-02-12T01:49:27.841Z,409.17
2023-02-12T01:52:00.385Z,74.07
2023-02-12T01:54:29.370Z,116.53
2023-02-12T01:56:57.774Z,270.20
2023-02-12T01:59:28.993Z,156.40
2023-02-12T02:01:57.327Z,114.33
2023-02-12T02:04:28.815Z,331.63
2023-02-12T02:06:58.719Z,387.63
2023-02-12T02:09:29.500Z,133.93
2023-02-12T02:12:15.545Z,262.17
2023-02-12T02:14:45.583Z,76.67
2023-02-12T02:17:33.073Z,50.83
2023-02-12T02:20:34.573Z,62.50
2023-02-12T02:23:29.542Z,84.50
2023-02-12T02:26:27.637Z,90.93
2023-02-12T02:29:01.425Z,162.33
2023-02-12T02:31:32.765Z,103.47
2023-02-12T02:34:03.399Z,27.07
2023-02-12T02:36:41.429Z,54.57
2023-02-12T02:39:23.999Z,183.87
2023-02-12T02:41:59.219Z,166.83
2023-02-12T02:44:28.475Z,151.13
2023-02-12T02:46:59.334Z,65.40
2023-02-12T02:49:29.760Z,95.53
2023-02-12T02:52:01.041Z,99.87
2023-02-12T02:54:32.272Z,104.80
2023-02-12T02:57:02.532Z,145.43
2023-02-12T02:59:34.260Z,113.53
2023-02-12T03:02:06.283Z,92.87
2023-02-12T03:04:35.770Z,79.37
2023-02-12T03:07:06.981Z,180.83
2023-02-12T03:09:38.314Z,137.30
2023-02-12T03:12:08.353Z,160.73
2023-02-12T03:14:39.456Z,31.10
2023-02-12T03:17:12.282Z,201.37
2023-02-12T03:19:42.833Z,60.97
2023-02-12T03:22:14.386Z,50.97
2023-02-12T03:24:44.603Z,160.00
2023-02-12T03:27:16.459Z,295.10
2023-02-12T03:29:45.393Z,141.23
2023-02-12T03:32:23.760Z,39.50
2023-02-12T03:34:53.682Z,189.53
2023-02-12T03:37:28.788Z,411.50
2023-02-12T03:39:58.940Z,304.53
2023-02-12T03:42:35.412Z,376.83
2023-02-12T03:45:05.858Z,455.00
2023-02-12T03:47:42.692Z,277.50
2023-02-12T03:50:12.930Z,400.07
2023-02-12T03:52:42.330Z,474.10
2023-02-12T03:55:11.639Z,544.23
2023-02-12T03:57:42.718Z,148.43
2023-02-12T04:00:13.701Z,84.03
2023-02-12T04:02:50.784Z,295.03
2023-02-12T04:05:21.325Z,271.53
2023-02-12T04:07:50.271Z,177.97
2023-02-12T04:10:19.559Z,309.87
2023-02-12T04:12:52.283Z,48.07
2023-02-12T04:15:36.745Z,199.77
2023-02-12T04:18:09.827Z,226.47
2023-02-12T04:20:44.470Z,351.70
2023-02-12T04:23:19.603Z,440.93
2023-02-12T04:25:55.151Z,148.43
2023-02-12T04:28:29.834Z,159.03
2023-02-12T04:31:01.776Z,377.70
2023-02-12T04:33:36.457Z,335.60
2023-02-12T04:36:08.423Z,343.70
2023-02-12T04:38:38.700Z,340.20
2023-02-12T04:41:07.804Z,312.07
2023-02-12T04:43:37.372Z,371.27
2023-02-12T04:46:07.112Z,399.03
2023-02-12T04:48:38.463Z,497.63
2023-02-12T04:51:07.354Z,246.03
2023-02-12T04:53:36.421Z,298.30
2023-02-12T04:56:06.010Z,168.60
2023-02-12T04:58:35.303Z,224.80
2023-02-12T05:01:04.540Z,490.13
2023-02-12T05:03:33.422Z,463.23
2023-02-12T05:06:06.124Z,355.47
2023-02-12T05:08:34.953Z,566.63
2023-02-12T05:11:08.361Z,387.87
2023-02-12T05:13:37.396Z,418.73
2023-02-12T05:16:06.896Z,466.30
2023-02-12T05:18:36.411Z,627.83
2023-02-12T05:21:08.082Z,480.50
2023-02-12T05:23:38.396Z,511.57
2023-02-12T05:26:08.885Z,616.37
2023-02-12T05:28:38.638Z,634.70
2023-02-12T05:31:10.209Z,399.97
2023-02-12T05:33:39.401Z,471.53
2023-02-12T05:36:11.658Z,233.70
2023-02-12T05:38:40.761Z,265.37
2023-02-12T05:41:10.342Z,619.87
2023-02-12T05:43:39.560Z,408.57
2023-02-12T05:46:08.370Z,503.50
2023-02-12T05:48:37.180Z,459.30
2023-02-12T05:51:06.405Z,483.93
2023-02-12T05:53:36.656Z,379.97
2023-02-12T05:56:13.556Z,640.87
2023-02-12T05:58:43.239Z,551.00
2023-02-12T06:01:13.739Z,580.43
2023-02-12T06:03:43.012Z,669.50
2023-02-12T06:06:12.999Z,509.17
2023-02-12T06:08:43.608Z,629.20
2023-02-12T06:11:14.727Z,462.73
2023-02-12T06:13:44.254Z,507.90
2023-02-12T06:16:19.250Z,452.77
2023-02-12T06:18:48.684Z,651.60
2023-02-12T06:21:17.785Z,519.30
2023-02-12T06:23:48.609Z,526.50
2023-02-12T06:26:18.041Z,476.30
2023-02-12T06:28:47.100Z,462.10
2023-02-12T06:31:22.684Z,454.50
2023-02-12T06:33:51.555Z,477.27
2023-02-12T06:36:21.568Z,571.23
2023-02-12T06:38:52.096Z,572.37
2023-02-12T06:41:20.991Z,407.80
2023-02-12T06:43:49.675Z,514.57
2023-02-12T06:46:18.955Z,603.20
2023-02-12T06:48:48.374Z,519.80
2023-02-12T06:52:18.702Z,398.17
2023-02-12T06:54:49.163Z,413.20
2023-02-12T06:57:17.798Z,279.87
2023-02-12T06:59:46.161Z,178.50
2023-02-12T07:02:14.782Z,486.23
2023-02-12T07:04:43.034Z,367.73
2023-02-12T07:07:11.348Z,362.27
2023-02-12T07:09:40.077Z,321.90
2023-02-12T07:12:09.913Z,114.60
2023-02-12T07:14:38.647Z,519.20
2023-02-12T07:17:08.889Z,588.87
2023-02-12T07:19:37.362Z,268.43
2023-02-12T07:22:05.604Z,152.43
2023-02-12T07:24:34.046Z,83.10
2023-02-12T07:27:02.373Z,321.87
2023-02-12T07:29:32.529Z,384.70
2023-02-12T07:32:00.921Z,105.43
2023-02-12T07:34:29.823Z,142.70
2023-02-12T07:36:58.227Z,246.30
2023-02-12T07:39:26.671Z,158.20
2023-02-12T07:41:54.960Z,364.43
2023-02-12T07:44:23.606Z,157.77
2023-02-12T07:46:53.704Z,96.50
2023-02-12T07:49:23.276Z,215.33
2023-02-12T07:51:51.768Z,149.83
2023-02-12T07:54:20.017Z,161.37
2023-02-12T07:56:48.711Z,95.83
2023-02-12T07:59:18.448Z,48.10
2023-02-12T08:01:48.067Z,139.60
2023-02-12T08:04:18.430Z,170.90
2023-02-12T08:06:47.536Z,144.90
2023-02-12T08:09:17.609Z,98.87
2023-02-12T08:11:46.351Z,34.57
2023-02-12T08:14:15.515Z,43.07
2023-02-12T08:16:44.287Z,29.27
2023-02-12T08:19:19.024Z,27.90
2023-02-12T08:21:52.502Z,24.47
2023-02-12T08:24:22.506Z,40.17
2023-02-12T08:26:51.026Z,31.77
2023-02-12T08:29:20.117Z,75.43
2023-02-12T08:31:49.269Z,39.57
2023-02-12T08:34:19.021Z,54.27
2023-02-12T08:36:47.452Z,92.43
2023-02-12T08:39:17.915Z,80.97
2023-02-12T08:41:46.342Z,70.50
2023-02-12T08:44:14.642Z,68.90
2023-02-12T08:46:46.175Z,69.03
2023-02-12T08:49:15.357Z,63.93
2023-02-12T08:51:44.826Z,42.40
2023-02-12T08:54:15.339Z,42.73
2023-02-12T08:56:45.854Z,54.63
2023-02-12T08:59:14.641Z,60.30
2023-02-12T09:01:42.994Z,45.80
2023-02-12T09:04:13.689Z,59.93
2023-02-12T09:06:42.020Z,65.73
2023-02-12T09:09:10.268Z,71.60
2023-02-12T09:11:38.606Z,227.53
2023-02-12T09:14:09.558Z,106.27
2023-02-12T09:16:38.068Z,208.43
2023-02-12T09:19:06.424Z,57.53
2023-02-12T09:21:35.009Z,90.77
2023-02-12T09:24:04.073Z,49.37
2023-02-12T09:26:32.452Z,48.10
2023-02-12T09:29:00.704Z,53.40
2023-02-12T09:31:31.478Z,69.77
2023-02-12T09:34:02.000Z,67.27
2023-02-12T09:36:30.690Z,54.90
2023-02-12T09:38:59.905Z,55.23
2023-02-12T09:42:03.239Z,38.30
2023-02-12T09:44:33.893Z,48.37
2023-02-12T09:47:05.513Z,52.87
2023-02-12T09:49:49.496Z,45.70
2023-02-12T09:52:18.920Z,42.93
2023-02-12T09:54:47.471Z,39.87
2023-02-12T09:57:18.875Z,50.20
2023-02-12T09:59:49.155Z,46.70
2023-02-12T10:02:20.125Z,54.37
2023-02-12T10:05:00.609Z,39.63
2023-02-12T10:07:52.207Z,59.00
2023-02-12T10:10:27.463Z,53.00
2023-02-12T10:12:57.720Z,60.73
2023-02-12T10:15:32.106Z,49.43
2023-02-12T10:18:16.144Z,61.83
2023-02-12T10:20:56.588Z,47.53
2023-02-12T10:23:39.636Z,46.20
2023-02-12T10:26:13.173Z,51.57
2023-02-12T10:28:42.685Z,81.00
2023-02-12T10:31:15.684Z,70.60
2023-02-12T10:33:46.920Z,100.07
2023-02-12T10:36:20.106Z,111.33
2023-02-12T10:38:50.647Z,86.90
2023-02-12T10:41:18.992Z,96.87
2023-02-12T10:44:16.361Z,153.80
2023-02-12T10:46:45.059Z,95.80
2023-02-12T10:49:16.375Z,239.03
2023-02-12T10:51:58.282Z,161.10
2023-02-12T10:54:33.621Z,139.83
2023-02-12T10:57:06.245Z,174.30
2023-02-12T10:59:35.854Z,152.67
2023-02-12T11:02:04.616Z,85.73
2023-02-12T11:04:34.774Z,110.97
2023-02-12T11:07:04.826Z,122.57
2023-02-12T11:09:36.373Z,85.57
2023-02-12T11:12:05.386Z,89.50
2023-02-12T11:14:33.743Z,140.23
2023-02-12T11:17:03.207Z,61.33
2023-02-12T11:19:35.263Z,59.43
2023-02-12T11:22:09.225Z,54.87
2023-02-12T11:24:38.385Z,47.13
2023-02-12T11:27:14.165Z,51.87
2023-02-12T11:29:42.567Z,45.70
2023-02-12T11:32:12.570Z,48.57
2023-02-12T11:34:42.577Z,51.87
2023-02-12T11:37:15.594Z,38.80
2023-02-12T11:39:43.864Z,37.47
2023-02-12T11:42:17.600Z,52.90
2023-02-12T11:44:49.820Z,41.03
2023-02-12T11:47:19.203Z,37.17
2023-02-12T11:49:53.422Z,43.37
2023-02-12T11:52:23.027Z,44.43
2023-02-12T11:54:52.336Z,31.83
2023-02-12T11:57:36.566Z,31.23
2023-02-12T12:00:05.978Z,29.50
2023-02-12T12:02:36.226Z,36.13
2023-02-12T12:05:09.976Z,29.03
2023-02-12T12:07:38.632Z,24.57
2023-02-12T12:10:08.969Z,21.77
2023-02-12T12:12:40.425Z,30.13
2023-02-12T12:15:28.788Z,30.60
2023-02-12T12:18:24.554Z,22.43
2023-02-12T12:20:55.777Z,20.07
2023-02-12T12:23:26.680Z,22.60
2023-02-12T12:25:57.943Z,21.47
2023-02-12T12:28:30.408Z,21.00
2023-02-12T12:31:02.695Z,20.37
2023-02-12T12:33:35.409Z,19.87
2023-02-12T12:36:26.138Z,20.90
2023-02-12T12:38:57.022Z,16.23
2023-02-12T12:41:29.280Z,18.47
2023-02-12T12:44:04.955Z,15.67
2023-02-12T12:46:41.633Z,16.87
2023-02-12T12:49:30.708Z,15.87
2023-02-12T12:52:34.496Z,13.87
2023-02-12T12:55:17.251Z,15.17
2023-02-12T12:57:50.212Z,15.20
2023-02-12T13:00:43.020Z,15.80
2023-02-12T13:03:36.240Z,11.97
2023-02-12T13:06:16.562Z,13.67
2023-02-12T13:08:55.192Z,11.33
2023-02-12T13:11:36.723Z,14.73
2023-02-12T13:14:14.129Z,11.20
2023-02-12T13:16:44.788Z,12.27
2023-02-12T13:19:16.618Z,10.87
2023-02-12T13:21:48.882Z,10.90
2023-02-12T13:24:30.251Z,11.37
2023-02-12T13:27:00.906Z,8.33
2023-02-12T13:29:31.036Z,10.93
2023-02-12T13:32:01.262Z,11.33
2023-02-12T13:34:30.848Z,9.33
2023-02-12T13:36:59.614Z,11.03
2023-02-12T13:39:31.687Z,8.87
2023-02-12T13:42:21.662Z,8.57
2023-02-12T13:44:56.389Z,10.00
2023-02-12T13:47:31.205Z,13.27
2023-02-12T13:50:01.436Z,8.90
2023-02-12T13:52:32.484Z,8.97
2023-02-12T13:55:13.098Z,7.87
2023-02-12T13:57:42.784Z,6.47
2023-02-12T14:00:52.877Z,9.20
2023-02-12T14:03:24.922Z,8.37
2023-02-12T14:06:14.601Z,8.90
2023-02-12T14:08:44.090Z,7.17
2023-02-12T14:11:13.716Z,10.10
2023-02-12T14:13:56.090Z,8.80
2023-02-12T14:16:39.825Z,7.27
2023-02-12T14:19:38.399Z,9.50
2023-02-12T14:22:12.210Z,5.33
2023-02-12T14:24:55.954Z,5.40
2023-02-12T14:27:37.989Z,8.03
2023-02-12T14:30:39.120Z,8.30
2023-02-12T14:33:27.744Z,5.83
2023-02-12T14:36:18.249Z,6.43
2023-02-12T14:39:05.126Z,5.13
2023-02-12T14:41:44.099Z,5.97
2023-02-12T14:44:46.201Z,6.23
2023-02-12T14:47:26.934Z,9.50
2023-02-12T14:49:56.059Z,8.70
2023-02-12T14:52:25.763Z,21.93
2023-02-12T14:54:55.513Z,17.37
2023-02-12T14:57:27.552Z,5.13
2023-02-12T14:59:59.478Z,10.83
2023-02-12T15:02:29.949Z,12.97
2023-02-12T15:05:01.079Z,9.47
2023-02-12T15:07:31.040Z,9.90
2023-02-12T15:10:02.920Z,10.37
2023-02-12T15:12:33.161Z,4.87
2023-02-12T15:15:05.973Z,4.87
2023-02-12T15:17:36.442Z,17.20
2023-02-12T15:20:06.952Z,5.43
2023-02-12T15:22:36.655Z,5.27
2023-02-12T15:25:18.463Z,4.40
2023-02-12T15:27:47.672Z,9.70
2023-02-12T15:30:25.904Z,13.93
2023-02-12T15:32:57.134Z,6.03
2023-02-12T15:35:26.952Z,8.43
2023-02-12T15:37:55.569Z,6.10
2023-02-12T15:40:26.913Z,14.73
2023-02-12T15:42:57.281Z,4.17
2023-02-12T15:45:29.345Z,6.03
2023-02-12T15:48:13.278Z,13.80
2023-02-12T15:50:50.595Z,3.93
2023-02-12T15:53:19.208Z,8.30
2023-02-12T15:55:48.192Z,6.10
2023-02-12T15:58:22.565Z,3.80
2023-02-12T16:00:51.057Z,11.67
2023-02-12T16:03:25.218Z,4.43
2023-02-12T16:05:54.046Z,9.40
2023-02-12T16:08:23.653Z,9.37
2023-02-12T16:10:54.048Z,6.20
2023-02-12T16:13:27.523Z,13.77
2023-02-12T16:16:06.262Z,11.23
2023-02-12T16:18:38.467Z,6.00
2023-02-12T16:21:07.710Z,10.00
2023-02-12T16:23:36.806Z,16.47
2023-02-12T16:26:05.888Z,11.83
2023-02-12T16:28:37.399Z,8.47
2023-02-12T16:31:10.665Z,13.63
2023-02-12T16:33:50.733Z,23.37
2023-02-12T16:36:30.948Z,17.03
2023-02-12T16:39:01.075Z,14.00
2023-02-12T16:41:31.165Z,9.80
2023-02-12T16:44:31.679Z,10.30
2023-02-12T16:47:02.877Z,9.17
2023-02-12T16:49:32.911Z,8.27
2023-02-12T16:52:20.020Z,10.70
2023-02-12T16:54:48.956Z,8.17
2023-02-12T16:57:17.739Z,6.67
2023-02-12T16:59:46.184Z,7.33
2023-02-12T17:02:15.722Z,8.63
2023-02-12T17:05:05.156Z,8.27
2023-02-12T17:07:36.187Z,8.57
2023-02-12T17:12:59.837Z,6.23
2023-02-12T17:15:30.401Z,6.73
2023-02-12T17:17:59.348Z,8.17
2023-02-12T17:20:29.415Z,9.10
2023-02-12T17:22:59.622Z,9.90
2023-02-12T17:25:30.217Z,8.80
2023-02-12T17:27:58.863Z,13.73
2023-02-12T17:30:29.131Z,10.47
2023-02-12T17:32:57.530Z,23.63
2023-02-12T17:35:26.181Z,21.30
2023-02-12T17:37:56.393Z,16.00
2023-02-12T17:40:25.508Z,20.80
2023-02-12T17:42:54.198Z,22.33
2023-02-12T17:45:22.639Z,17.30
2023-02-12T17:47:51.342Z,18.90
2023-02-12T17:50:20.233Z,16.93
2023-02-12T17:52:48.922Z,16.10
2023-02-12T17:55:19.289Z,11.93
2023-02-12T17:57:47.598Z,17.80
2023-02-12T18:00:17.316Z,19.90
2023-02-12T18:02:46.222Z,33.53
2023-02-12T18:05:14.752Z,37.23
2023-02-12T18:07:43.328Z,22.03
2023-02-12T18:10:12.150Z,37.40
2023-02-12T18:12:41.912Z,24.87
2023-02-12T18:15:11.329Z,20.17
2023-02-12T18:17:40.106Z,28.33
2023-02-12T18:20:10.355Z,26.87
2023-02-12T18:22:38.858Z,31.50
2023-02-12T18:25:08.168Z,16.80
2023-02-12T18:27:36.549Z,29.27
2023-02-12T18:30:09.081Z,25.87
2023-02-12T18:32:38.077Z,34.77
2023-02-12T18:35:06.939Z,31.53
2023-02-12T18:37:35.378Z,20.27
2023-02-12T18:40:03.755Z,71.77
2023-02-12T18:42:33.465Z,17.67
2023-02-12T18:45:03.842Z,97.23
2023-02-12T18:47:34.044Z,83.13
2023-02-12T18:50:02.339Z,57.43
2023-02-12T18:52:32.021Z,48.23
2023-02-12T18:55:00.576Z,56.87
2023-02-12T18:57:30.357Z,69.67
2023-02-12T18:59:58.582Z,57.17
2023-02-12T19:02:27.041Z,49.40
2023-02-12T19:04:56.928Z,43.93
2023-02-12T19:07:27.009Z,62.77
2023-02-12T19:09:55.829Z,101.30
2023-02-12T19:12:26.364Z,63.77
2023-02-12T19:14:54.770Z,36.77
2023-02-12T19:17:23.023Z,17.57
2023-02-12T19:19:51.980Z,12.53
2023-02-12T19:22:21.965Z,12.33
2023-02-12T19:24:51.543Z,22.90
2023-02-12T19:27:20.284Z,26.97
2023-02-12T19:29:49.022Z,18.63
2023-02-12T19:32:17.611Z,12.90
2023-02-12T19:34:46.903Z,15.63
2023-02-12T19:37:15.473Z,11.93
2023-02-12T19:39:45.606Z,12.50
2023-02-12T19:42:15.105Z,11.30
2023-02-12T19:44:43.583Z,10.73
2023-02-12T19:47:12.315Z,9.77
2023-02-12T19:49:41.462Z,10.43
2023-02-12T19:52:10.143Z,24.73
2023-02-12T19:54:38.429Z,27.30
2023-02-12T19:57:09.378Z,28.23
2023-02-12T19:59:37.969Z,20.83
2023-02-12T20:02:06.587Z,17.70
2023-02-12T20:04:35.119Z,59.13
2023-02-12T20:07:03.863Z,23.43
2023-02-12T20:09:32.208Z,22.37
2023-02-12T20:12:00.606Z,27.50
2023-02-12T20:14:30.242Z,17.53
2023-02-12T20:16:59.660Z,18.73
2023-02-12T20:19:30.114Z,19.23
2023-02-12T20:21:58.470Z,19.63
2023-02-12T20:24:27.814Z,21.50
2023-02-12T20:26:56.179Z,29.83
2023-02-12T20:29:24.505Z,42.97
2023-02-12T20:31:55.224Z,15.37
2023-02-12T20:34:24.123Z,18.50
2023-02-12T20:36:54.000Z,30.27
2023-02-12T20:39:22.738Z,16.60
2023-02-12T20:41:51.556Z,35.40
2023-02-12T20:44:21.570Z,41.50
2023-02-12T20:46:54.446Z,62.93
2023-02-12T20:49:27.002Z,44.90
2023-02-12T20:51:55.319Z,29.37
2023-02-12T20:54:23.968Z,30.60
2023-02-12T20:56:53.012Z,18.13
2023-02-12T20:59:21.679Z,11.10
2023-02-12T21:01:50.253Z,38.27
2023-02-12T21:04:19.599Z,19.13
2023-02-12T21:06:50.378Z,10.43
2023-02-12T21:09:18.789Z,30.67
2023-02-12T21:11:47.103Z,14.23
2023-02-12T21:14:22.499Z,23.37
2023-02-12T21:16:54.110Z,20.17
2023-02-12T21:19:22.630Z,12.60
2023-02-12T21:21:52.308Z,71.27
2023-02-12T21:24:22.003Z,13.87
2023-02-12T21:26:50.830Z,27.30
2023-02-12T21:29:19.640Z,36.87
2023-02-12T21:31:49.178Z,24.87
2023-02-12T21:34:19.665Z,38.93
2023-02-12T21:36:48.482Z,34.00
2023-02-12T21:39:25.140Z,43.30
2023-02-12T21:41:54.848Z,40.80
2023-02-12T21:44:23.446Z,40.80
2023-02-12T21:46:51.841Z,35.60
2023-02-12T21:49:24.989Z,31.40
2023-02-12T21:51:54.050Z,40.70
2023-02-12T21:54:24.299Z,51.13
2023-02-12T21:56:52.567Z,54.10
2023-02-12T21:59:21.409Z,32.80
2023-02-12T22:01:50.968Z,24.40
2023-02-12T22:04:19.628Z,33.67
2023-02-12T22:06:48.846Z,59.07
2023-02-12T22:09:18.657Z,97.73
2023-02-12T22:11:48.344Z,41.07
2023-02-12T22:14:17.606Z,155.57
2023-02-12T22:16:46.116Z,210.30
2023-02-12T22:19:14.729Z,63.30
2023-02-12T22:21:43.493Z,65.37
2023-02-12T22:24:13.951Z,27.73
2023-02-12T22:26:42.306Z,42.67
2023-02-12T22:29:13.890Z,211.63
2023-02-12T22:31:42.996Z,114.27
2023-02-12T22:34:13.948Z,204.40
2023-02-12T22:36:45.158Z,275.77
2023-02-12T22:39:13.869Z,183.27
2023-02-12T22:41:43.162Z,78.77
2023-02-12T22:44:13.239Z,230.60
2023-02-12T22:46:41.858Z,352.27
2023-02-12T22:49:10.058Z,139.70
2023-02-12T22:51:39.684Z,161.30
2023-02-12T22:54:08.149Z,40.10
2023-02-12T22:56:36.398Z,112.17
2023-02-12T22:59:04.766Z,127.13
2023-02-12T23:01:34.723Z,221.23
2023-02-12T23:04:06.546Z,60.70
2023-02-12T23:06:34.887Z,135.07
2023-02-12T23:09:04.146Z,96.40
2023-02-12T23:11:33.307Z,86.87
2023-02-12T23:14:02.021Z,174.73
2023-02-12T23:16:30.384Z,95.07
2023-02-12T23:19:01.455Z,48.73
2023-02-12T23:21:30.250Z,66.87
2023-02-12T23:23:59.183Z,28.90
2023-02-12T23:26:28.088Z,210.27
2023-02-12T23:28:57.674Z,63.07
2023-02-12T23:31:26.154Z,81.07
2023-02-12T23:33:55.162Z,50.50
2023-02-12T23:36:25.355Z,132.27
2023-02-12T23:38:53.613Z,184.37
2023-02-12T23:41:22.152Z,76.17
2023-02-12T23:43:50.730Z,75.30
2023-02-12T23:46:19.020Z,87.77
2023-02-12T23:48:47.197Z,193.17
2023-02-12T23:51:15.444Z,175.07
2023-02-12T23:53:45.120Z,72.67
2023-02-12T23:56:13.767Z,59.80
2023-02-12T23:58:42.409Z,75.73
